Flight Track Log - Related Links

Times and Time Zones

All times are in EDT time to prevent confusion due to time zone crossing. See the N654DL flight status page for this flight to view local times or setup timezone preferences in your user account.


Time Position Orientation Groundspeed Altitude Reporting Facility
EDT Latitude Longitude Course Direction KTS MPH feet Rate Location/Type
Tue 04:32:31 PM 33.6500 -84.3833 234° Southwest 173 199 2,400  Level Atlanta TRACON
Tue 04:33:31 PM 33.6667 -84.3167 73° East 240 276 4,500 2,600 Climbing Atlanta TRACON
Tue 04:34:31 PM 33.7333 -84.2667 32° Northeast 287 330 7,600 2,650 Climbing Atlanta TRACON
Tue 04:35:00 PM 33.8001 -84.3597 270° West  Level FlightAware Approximate
Tue 04:35:31 PM 33.8000 -84.3000 337° Northwest 292 336 9,800  Level Atlanta TRACON
Tue 04:36:00 PM 33.8001 -84.4960 270° West  Level FlightAware Approximate
Tue 04:37:00 PM 33.7701 -84.6215 234° Southwest  Level FlightAware Approximate
Tue 04:37:05 PM 33.8103 -84.4214 276° West 288 331 11,100  Level Atlanta Center
Tue 04:38:05 PM 33.8078 -84.5264 268° West 288 331 13,800 1,850 Climbing Atlanta Center
Tue 04:39:05 PM 33.7742 -84.6161 246° West 288 331 14,800 1,300 Climbing Atlanta Center
Tue 04:40:05 PM 33.7214 -84.7206 239° Southwest 318 366 16,400 1,850 Climbing Atlanta Center
Tue 04:41:05 PM 33.6664 -84.8325 239° Southwest 364 419 18,500 2,250 Climbing Atlanta Center
Tue 04:42:05 PM 33.6072 -84.9492 239° Southwest 409 471 20,900 2,300 Climbing Atlanta Center
Tue 04:43:05 PM 33.5500 -85.0683 240° Southwest 415 478 23,100 1,950 Climbing Atlanta Center
Tue 04:44:05 PM 33.4883 -85.1872 238° Southwest 420 483 24,800 1,700 Climbing Atlanta Center
Tue 04:45:05 PM 33.4494 -85.3211 251° West 419 482 26,500 1,450 Climbing Atlanta Center
Tue 04:46:05 PM 33.3836 -85.4244 233° Southwest 425 489 27,700 1,300 Climbing Atlanta Center
Tue 04:47:05 PM 33.2947 -85.5225 223° Southwest 432 497 29,100 1,800 Climbing Atlanta Center
Tue 04:48:05 PM 33.2017 -85.6203 221° Southwest 432 497 31,300 1,850 Climbing Atlanta Center
Tue 04:49:05 PM 33.1108 -85.7178 222° Southwest 437 503 32,800 1,350 Climbing Atlanta Center
Tue 04:50:05 PM 33.0111 -85.8272 223° Southwest 448 516 34,000 600 Climbing Atlanta Center
Tue 04:51:05 PM 32.9303 -85.9272 226° Southwest 443 510 34,000  Level Atlanta Center
Tue 04:52:05 PM 32.8411 -86.0267 223° Southwest 436 502 34,000  Level Atlanta Center
Tue 04:53:05 PM 32.7558 -86.1258 224° Southwest 436 502 34,000  Level Atlanta Center
Tue 04:54:05 PM 32.6667 -86.2250 223° Southwest 436 502 34,000  Level Atlanta Center
Tue 04:55:05 PM 32.5792 -86.3289 225° Southwest 436 502 34,000  Level Atlanta Center
Tue 04:56:05 PM 32.5067 -86.4058 222° Southwest 436 502 34,000  Level Atlanta Center
Tue 04:57:05 PM 32.4144 -86.5239 227° Southwest 436 502 34,000  Level Atlanta Center
Tue 04:58:05 PM 32.3247 -86.6269 224° Southwest 441 507 34,000  Level Atlanta Center
Tue 04:59:05 PM 32.2225 -86.7247 219° Southwest 441 507 34,000  Level Atlanta Center
Tue 05:00:05 PM 32.1347 -86.8250 224° Southwest 441 507 34,000  Level Atlanta Center
Tue 05:01:05 PM 32.0447 -86.9228 223° Southwest 441 507 34,000  Level Atlanta Center
Tue 05:02:05 PM 31.9589 -87.0203 224° Southwest 431 496 34,000  Level Atlanta Center
Tue 05:03:05 PM 31.8711 -87.1153 223° Southwest 431 496 34,000  Level Atlanta Center
Tue 05:04:05 PM 31.7853 -87.2100 223° Southwest 431 496 34,000  Level Atlanta Center
Tue 05:05:05 PM 31.6992 -87.3072 224° Southwest 431 496 34,000  Level Atlanta Center
Tue 05:07:35 PM 31.4842 -87.5378 222° Southwest 430 495 34,000  Level Houston Center
Tue 05:08:37 PM 31.3975 -87.6336 223° Southwest 429 494 34,000  Level Houston Center
Tue 05:09:39 PM 31.3094 -87.7297 223° Southwest 432 497 34,000  Level Houston Center
Tue 05:10:41 PM 31.2186 -87.8286 223° Southwest 429 494 34,000  Level Houston Center
Tue 05:11:43 PM 31.1314 -87.9236 223° Southwest 430 495 34,000  Level Houston Center
Tue 05:12:46 PM 31.0253 -88.0369 222° Southwest 430 495 34,000  Level Houston Center
Tue 05:13:48 PM 30.9364 -88.1317 222° Southwest 433 498 34,000 -629 Level Houston Center
Tue 05:14:50 PM 30.8464 -88.2261 222° Southwest 434 499 32,700 -1,355 Descending Houston Center
Tue 05:15:52 PM 30.7581 -88.3219 223° Southwest 435 501 31,200 -1,452 Descending Houston Center
Tue 05:16:54 PM 30.6867 -88.4414 235° Southwest 437 503 29,700 -1,452 Descending Houston Center
Tue 05:17:56 PM 30.6319 -88.5667 243° Southwest 434 499 28,200 -1,887 Descending Houston Center
Tue 05:18:58 PM 30.5756 -88.6944 243° Southwest 441 507 25,800 -2,758 Descending Houston Center
Tue 05:20:00 PM 30.5186 -88.8214 243° Southwest 444 511 22,500 -1,839 Descending Houston Center
Tue 05:21:02 PM 30.4544 -88.9681 243° Southwest 441 507 22,000 -384 Descending Houston Center
Tue 05:22:05 PM 30.3989 -89.0933 243° Southwest 439 505 21,700 -1,008 Descending Houston Center
Tue 05:23:07 PM 30.3531 -89.2175 247° West 424 488 19,900 -2,364 Descending Houston Center
Tue 05:23:44 PM 30.3222 -89.3078 248° West 414 476 17,800 -3,194 Descending Houston Center
Tue 05:24:09 PM 30.3014 -89.3642 247° West 404 465 16,600 -2,721 Descending Houston Center
Tue 05:25:10 PM 30.2575 -89.4794 246° West 388 447 13,900 -2,607 Descending Houston Center
Tue 05:26:11 PM 30.2344 -89.5961 257° West 376 433 11,300 -1,920 Descending Houston Center
Tue 05:27:15 PM 30.2269 -89.7156 266° West 365 420 9,900 -1,240 Descending Houston Center
Tue 05:28:12 PM 30.2208 -89.8086 266° West 290 334 8,800 -1,475 Descending Houston Center
Tue 05:29:13 PM 30.2156 -89.9003 266° West 280 322 7,000 -1,781 Descending Houston Center
Tue 05:30:20 PM 30.2086 -90.0017 265° West 269 310 5,000 -1,374 Descending Houston Center
Tue 05:31:24 PM 30.2047 -90.0753 267° West 266 306 4,000 -984 Descending Houston Center
Tue 05:32:22 PM 30.1942 -90.1464 260° West 206 237 3,000 -958 Descending Houston Center
Tue 05:33:23 PM 30.1514 -90.1819 216° Southwest 179 206 2,100 -885 Descending Houston Center

Login

Don't have an account? Register now (free) for customized features, flight alerts, and more!